Time;durP1;ratioP1;P1;durP2;ratioP2;P2;SDS_P1;SDS_P2;PMS_P1;PMS_P2;Temp;Humidity;BMP_temperature;BMP_pressure;BME280_temperature;BME280_humidity;BME280_pressure;Samples;Min_cycle;Max_cycle;Signal;HPM_P1;HPM_P2
2022/03/22 00:00:48;;;;;;;28.95;19.60;;;;;;;11.07;71.79;102944.41;5043894;28;20048;-48
2022/03/22 00:03:16;;;;;;;29.98;20.27;;;;;;;11.08;71.41;102946.91;5033229;28;20124;-46
2022/03/22 00:05:45;;;;;;;27.20;20.20;;;;;;;11.08;71.67;102952.38;5032514;28;20072;-47
2022/03/22 00:08:12;;;;;;;30.73;21.85;;;;;;;11.07;71.24;102950.72;5033319;28;20051;-47
2022/03/22 00:10:40;;;;;;;30.02;20.95;;;;;;;11.06;71.44;102945.47;5034411;28;20048;-48
2022/03/22 00:13:08;;;;;;;32.08;20.38;;;;;;;11.05;71.18;102952.81;5053386;28;20131;-48
2022/03/22 00:15:36;;;;;;;33.70;21.17;;;;;;;11.05;71.52;102954.72;5051550;28;20067;-49
2022/03/22 00:18:25;;;;;;;28.70;21.35;;;;;;;11.03;70.99;102949.47;5053226;28;20491;-50
2022/03/22 00:20:53;;;;;;;29.10;21.27;;;;;;;11.01;71.24;102946.09;5052267;28;20132;-47
2022/03/22 00:23:21;;;;;;;32.92;21.17;;;;;;;10.98;71.12;102943.81;5035717;28;20069;-49
2022/03/22 00:25:49;;;;;;;29.10;20.00;;;;;;;10.98;71.30;102940.28;5053201;28;20132;-45
2022/03/22 00:28:17;;;;;;;27.15;19.83;;;;;;;10.96;70.95;102948.66;5051730;28;20410;-49
2022/03/22 00:30:45;;;;;;;30.00;20.23;;;;;;;10.95;70.74;102949.72;5053010;28;20045;-46
2022/03/22 00:33:13;;;;;;;27.67;20.67;;;;;;;10.95;70.91;102944.28;5037451;28;20060;-47
2022/03/22 00:35:42;;;;;;;31.00;19.88;;;;;;;10.94;70.96;102958.94;5034391;28;20041;-43
2022/03/22 00:38:12;;;;;;;28.75;20.38;;;;;;;10.92;71.21;102952.91;5036609;28;20038;-43
2022/03/22 00:40:40;;;;;;;31.13;20.67;;;;;;;10.89;71.03;102950.59;5005884;28;20132;-43
2022/03/22 00:43:08;;;;;;;33.80;20.90;;;;;;;10.88;70.67;102957.09;5048525;28;20067;-47
2022/03/22 00:45:37;;;;;;;28.60;20.60;;;;;;;10.84;70.93;102956.69;5058667;28;20132;-43
2022/03/22 00:48:12;;;;;;;31.02;20.42;;;;;;;10.82;70.83;102963.41;5058481;28;20048;-43
2022/03/22 00:50:43;;;;;;;28.00;20.25;;;;;;;10.82;70.63;102955.25;5058546;28;20068;-43
2022/03/22 00:53:13;;;;;;;29.77;19.83;;;;;;;10.79;71.09;102959.25;5052136;28;20045;-44
2022/03/22 00:55:41;;;;;;;31.73;20.52;;;;;;;10.78;70.74;102964.94;5059598;28;20128;-46
2022/03/22 00:58:09;;;;;;;24.92;20.02;;;;;;;10.76;71.30;102961.56;5059380;28;20128;-44
2022/03/22 01:00:38;;;;;;;28.25;19.88;;;;;;;10.75;70.90;102959.88;5058417;28;20045;-46
2022/03/22 01:03:07;;;;;;;28.58;19.77;;;;;;;10.73;70.99;102962.00;5056440;28;20407;-48
2022/03/22 01:05:35;;;;;;;34.58;20.45;;;;;;;10.72;70.44;102963.06;5039531;28;20050;-44
2022/03/22 01:08:08;;;;;;;28.33;20.70;;;;;;;10.69;70.55;102953.41;5037977;28;20275;-49
2022/03/22 01:10:39;;;;;;;28.52;19.98;;;;;;;10.65;70.42;102955.75;5021949;28;20116;-47
2022/03/22 01:13:07;;;;;;;29.27;20.92;;;;;;;10.63;70.81;102960.59;5042220;28;20071;-46
2022/03/22 01:15:36;;;;;;;30.65;20.13;;;;;;;10.64;70.98;102959.50;5059313;28;20128;-47
2022/03/22 01:18:07;;;;;;;27.67;19.33;;;;;;;10.64;70.55;102962.25;5059432;28;20037;-45
2022/03/22 01:20:37;;;;;;;30.67;19.33;;;;;;;10.64;70.70;102967.69;5041055;28;20065;-45
2022/03/22 01:23:07;;;;;;;28.17;19.95;;;;;;;10.61;70.93;102962.69;5041966;28;20036;-46
2022/03/22 01:25:36;;;;;;;26.90;19.45;;;;;;;10.60;70.87;102961.00;5057577;28;20120;-46
2022/03/22 01:28:06;;;;;;;29.73;19.48;;;;;;;10.60;70.89;102966.44;5039428;28;20077;-49
2022/03/22 01:30:35;;;;;;;27.58;18.77;;;;;;;10.60;71.13;102961.00;5039400;28;20531;-45
2022/03/22 01:33:04;;;;;;;32.55;20.20;;;;;;;10.60;70.67;102968.34;5047451;28;20048;-46
2022/03/22 01:35:33;;;;;;;25.88;19.20;;;;;;;10.59;70.42;102959.34;5059199;28;20499;-49
2022/03/22 01:38:01;;;;;;;32.70;20.00;;;;;;;10.59;70.61;102961.22;5059284;28;20052;-48
2022/03/22 01:40:30;;;;;;;31.10;19.08;;;;;;;10.57;69.99;102961.44;5057556;28;20045;-48
2022/03/22 01:42:58;;;;;;;28.17;20.00;;;;;;;10.57;70.30;102963.31;5053008;28;20053;-45
2022/03/22 01:45:26;;;;;;;27.08;18.83;;;;;;;10.56;70.34;102956.19;5039024;28;20076;-46
2022/03/22 01:47:58;;;;;;;31.50;19.52;;;;;;;10.52;70.38;102955.78;5038928;28;20069;-45
2022/03/22 01:50:26;;;;;;;30.13;19.58;;;;;;;10.50;70.32;102957.88;5035157;28;20041;-47
2022/03/22 01:52:56;;;;;;;28.15;19.35;;;;;;;10.48;70.49;102956.44;5043702;28;20061;-46
2022/03/22 01:55:25;;;;;;;26.08;19.30;;;;;;;10.46;70.34;102956.63;5054490;28;20466;-48
2022/03/22 01:57:54;;;;;;;25.63;18.63;;;;;;;10.44;70.33;102956.03;5055772;28;20041;-52
2022/03/22 02:00:23;;;;;;;28.05;18.40;;;;;;;10.38;70.11;102952.25;5055644;28;20029;-51
2022/03/22 02:05:56;;;;;;;25.77;18.50;;;;;;;10.31;70.59;102950.63;5053324;28;20041;-49
2022/03/22 02:08:32;;;;;;;30.80;19.13;;;;;;;10.31;70.48;102950.63;5056032;28;20069;-45
2022/03/22 02:11:00;;;;;;;27.83;18.73;;;;;;;10.31;70.37;102947.88;5055865;28;20045;-44
2022/03/22 02:13:32;;;;;;;28.20;19.30;;;;;;;10.30;70.37;102951.69;5050351;28;20052;-44
2022/03/22 02:16:03;;;;;;;27.45;18.38;;;;;;;10.26;70.43;102953.13;5034785;28;20053;-44
2022/03/22 02:18:32;;;;;;;24.63;18.13;;;;;;;10.21;70.70;102951.84;5039598;28;20109;-50
2022/03/22 02:21:01;;;;;;;32.53;18.60;;;;;;;10.22;70.53;102947.25;5054124;28;20041;-48
2022/03/22 02:23:52;;;;;;;26.75;17.73;;;;;;;10.24;70.38;102945.97;5040590;28;20052;-47
2022/03/22 02:26:20;;;;;;;26.88;17.80;;;;;;;10.23;70.34;102944.31;5034306;28;20037;-47
2022/03/22 02:28:53;;;;;;;24.77;16.92;;;;;;;10.27;69.88;102943.88;5035174;28;20080;-46
2022/03/22 02:31:25;;;;;;;28.65;17.38;;;;;;;10.31;69.81;102946.00;5041068;28;20090;-47
2022/03/22 02:33:53;;;;;;;24.52;16.75;;;;;;;10.33;69.46;102937.63;5055050;28;20052;-48
2022/03/22 02:36:21;;;;;;;25.92;17.60;;;;;;;10.34;69.55;102945.59;5053982;28;20043;-47
2022/03/22 02:38:49;;;;;;;24.27;16.60;;;;;;;10.34;69.39;102944.72;5055217;28;20041;-48
2022/03/22 02:41:19;;;;;;;24.83;17.88;;;;;;;10.33;69.25;102943.91;5055088;28;20556;-49
2022/03/22 02:43:48;;;;;;;24.60;17.15;;;;;;;10.25;69.22;102941.38;5045386;28;20037;-48
2022/03/22 02:46:16;;;;;;;27.30;17.33;;;;;;;10.16;69.62;102948.09;5033968;28;20057;-46
2022/03/22 02:48:44;;;;;;;24.02;16.67;;;;;;;10.12;69.87;102944.97;5033823;28;20045;-46
2022/03/22 02:51:12;;;;;;;27.63;16.58;;;;;;;10.12;69.93;102944.97;5034778;28;20045;-47
2022/03/22 02:53:40;;;;;;;27.60;17.55;;;;;;;10.15;69.78;102941.81;5037832;28;20128;-46
2022/03/22 02:56:09;;;;;;;25.08;16.90;;;;;;;10.17;69.61;102947.91;5027390;28;20047;-47
2022/03/22 02:58:36;;;;;;;24.98;16.50;;;;;;;10.19;69.54;102947.69;5034652;28;20151;-46
2022/03/22 03:01:04;;;;;;;26.23;17.48;;;;;;;10.19;69.45;102953.13;5042610;28;20072;-45
2022/03/22 03:03:33;;;;;;;29.58;16.98;;;;;;;10.17;69.29;102950.63;5054550;28;20048;-45
2022/03/22 03:06:01;;;;;;;27.73;17.27;;;;;;;10.15;69.41;102941.81;5054008;28;20047;-48
2022/03/22 03:08:29;;;;;;;25.98;16.90;;;;;;;10.12;69.21;102947.69;5054466;28;20484;-44
2022/03/22 03:10:57;;;;;;;25.75;17.10;;;;;;;10.09;69.20;102939.94;5042766;28;20049;-43
2022/03/22 03:13:24;;;;;;;27.55;17.35;;;;;;;10.05;69.27;102955.03;5034677;28;20648;-44
2022/03/22 03:15:52;;;;;;;26.42;16.92;;;;;;;10.02;69.31;102942.66;5034519;28;20051;-43
2022/03/22 03:18:20;;;;;;;22.52;17.48;;;;;;;9.94;69.34;102950.25;5034530;28;20063;-43
2022/03/22 03:20:47;;;;;;;32.47;17.50;;;;;;;9.83;69.66;102959.88;5039296;28;20121;-44
2022/03/22 03:23:15;;;;;;;30.95;17.80;;;;;;;9.77;70.08;102958.00;5043794;28;20049;-43
2022/03/22 03:25:43;;;;;;;24.42;17.05;;;;;;;9.69;70.54;102948.19;5053388;28;20131;-43
2022/03/22 03:28:11;;;;;;;24.40;16.35;;;;;;;9.67;70.43;102961.16;5054277;28;20136;-45
2022/03/22 03:30:38;;;;;;;28.98;16.58;;;;;;;9.65;70.67;102955.06;5052099;28;20056;-45
2022/03/22 03:33:06;;;;;;;24.27;16.83;;;;;;;9.67;70.87;102955.72;5037605;28;20041;-43
2022/03/22 03:35:34;;;;;;;30.65;17.08;;;;;;;9.71;70.61;102951.50;5043917;28;20046;-45
2022/03/22 03:38:02;;;;;;;25.90;16.55;;;;;;;9.76;70.50;102964.47;5045564;28;20053;-51
2022/03/22 03:41:53;;;;;;;23.60;16.63;;;;;;;9.81;70.13;102962.81;5038699;28;20045;-46
2022/03/22 03:43:17;;;;;;;25.58;15.70;;;;;;;9.88;69.91;102967.41;5052980;28;20060;-48
2022/03/22 03:48:32;;;;;;;24.63;16.13;;;;;;;9.95;69.56;102970.97;5036246;28;20029;-48
2022/03/22 03:51:00;;;;;;;25.48;17.08;;;;;;;9.96;69.13;102967.22;5053858;28;20454;-48
2022/03/22 03:53:28;;;;;;;26.67;17.08;;;;;;;9.97;69.23;102974.31;5053731;28;20535;-47
2022/03/22 03:55:55;;;;;;;23.88;16.45;;;;;;;9.97;69.21;102974.31;5052503;28;20424;-48
2022/03/22 03:58:23;;;;;;;26.58;16.70;;;;;;;9.97;69.12;102977.03;5053803;28;20131;-45
2022/03/22 04:00:51;;;;;;;26.13;16.02;;;;;;;9.94;69.19;102977.47;5035995;28;20049;-51
2022/03/22 04:03:19;;;;;;;23.25;15.93;;;;;;;9.89;68.95;102974.56;5036589;28;20037;-49
2022/03/22 04:05:46;;;;;;;26.48;16.95;;;;;;;9.80;69.03;102980.19;5053526;28;20045;-47
2022/03/22 04:08:14;;;;;;;22.77;16.50;;;;;;;9.73;69.53;102975.81;5053498;28;20055;-47
2022/03/22 04:10:42;;;;;;;25.20;16.85;;;;;;;9.68;69.45;102979.16;5041092;28;20100;-49
2022/03/22 04:13:11;;;;;;;25.15;16.60;;;;;;;9.68;69.89;102981.88;5031985;28;20048;-44
2022/03/22 04:15:39;;;;;;;23.00;16.77;;;;;;;9.69;69.75;102982.69;5033240;28;20193;-48
2022/03/22 04:18:07;;;;;;;22.05;16.27;;;;;;;9.67;69.37;102982.94;5033162;28;20488;-48
2022/03/22 04:20:35;;;;;;;22.13;16.70;;;;;;;9.60;69.81;102988.34;5032663;28;20045;-49
2022/03/22 04:23:03;;;;;;;26.33;17.98;;;;;;;9.58;70.14;102986.91;5033284;28;20064;-48
2022/03/22 04:25:30;;;;;;;26.70;16.73;;;;;;;9.59;69.78;102985.84;5031946;28;20052;-50
2022/03/22 04:33:33;;;;;;;25.58;17.00;;;;;;;9.63;69.82;102989.81;5032890;28;20049;-48
2022/03/22 04:36:01;;;;;;;23.08;16.40;;;;;;;9.60;69.32;102987.53;5032987;28;20408;-49
2022/03/22 04:38:29;;;;;;;29.35;16.88;;;;;;;9.49;69.82;102991.69;5032062;28;20044;-48
2022/03/22 04:40:57;;;;;;;22.35;16.25;;;;;;;9.37;70.08;102991.47;5032941;28;20128;-48
2022/03/22 04:43:25;;;;;;;29.80;17.38;;;;;;;9.34;70.19;102996.50;5033036;28;20111;-46
2022/03/22 04:45:53;;;;;;;23.25;16.70;;;;;;;9.28;70.25;102995.41;5032941;28;20047;-51
2022/03/22 04:48:21;;;;;;;24.42;16.38;;;;;;;9.25;70.71;103001.28;5033187;28;20049;-49
2022/03/22 04:56:43;;;;;;;23.92;16.05;;;;;;;9.24;70.49;102991.44;5033173;28;20052;-43
2022/03/22 04:56:45;;;;;;;25.33;16.95;;;;;;;9.24;71.00;102991.44;5038041;28;20052;-46
2022/03/22 04:59:15;;;;;;;27.10;17.13;;;;;;;9.23;70.71;102997.91;5033108;28;20404;-50
2022/03/22 05:01:43;;;;;;;25.35;17.38;;;;;;;9.17;70.59;102999.59;5032826;28;20077;-47
2022/03/22 05:04:11;;;;;;;24.17;16.98;;;;;;;9.08;71.03;102999.97;5033719;28;20492;-49
2022/03/22 05:06:40;;;;;;;30.58;17.38;;;;;;;9.07;70.79;103009.19;5033067;28;20053;-49
2022/03/22 05:09:10;;;;;;;22.73;16.60;;;;;;;9.06;71.23;103008.31;5031665;28;20041;-49
2022/03/22 05:11:39;;;;;;;22.95;15.68;;;;;;;9.06;70.84;103005.59;5017378;28;20037;-49
2022/03/22 05:14:08;;;;;;;23.77;16.13;;;;;;;9.09;71.12;103010.66;5032699;28;20087;-48
2022/03/22 05:16:36;;;;;;;26.85;17.35;;;;;;;9.14;70.93;103004.59;5033482;28;20045;-48
2022/03/22 05:19:04;;;;;;;27.17;16.83;;;;;;;9.17;70.78;103015.06;5032657;28;20041;-50
2022/03/22 05:21:32;;;;;;;23.90;16.52;;;;;;;9.18;70.56;103014.00;5033101;28;20049;-50
2022/03/22 05:24:00;;;;;;;24.50;17.23;;;;;;;9.21;70.99;103021.75;5051180;28;20125;-47
2022/03/22 05:26:28;;;;;;;27.20;16.58;;;;;;;9.21;70.65;103019.03;5055333;28;20056;-47
2022/03/22 05:28:55;;;;;;;23.58;16.63;;;;;;;9.17;70.36;103023.22;5056474;28;20079;-49
2022/03/22 05:31:23;;;;;;;24.58;17.23;;;;;;;9.13;70.49;103024.66;5054020;28;20041;-50
2022/03/22 05:33:54;;;;;;;23.13;16.45;;;;;;;9.09;70.85;103029.69;5053279;28;20048;-48
2022/03/22 05:36:22;;;;;;;27.27;16.92;;;;;;;9.07;70.50;103025.50;5056536;28;20404;-42
2022/03/22 05:38:50;;;;;;;26.50;15.65;;;;;;;9.08;71.00;103029.88;5055033;28;20068;-45
2022/03/22 05:41:18;;;;;;;27.45;17.52;;;;;;;9.07;70.79;103034.50;5055612;28;20053;-43
2022/03/22 05:43:46;;;;;;;26.75;17.20;;;;;;;9.04;70.95;103034.88;5053426;28;20511;-43
2022/03/22 05:46:16;;;;;;;26.95;17.35;;;;;;;9.02;70.47;103028.81;5056148;28;20049;-43
2022/03/22 05:48:48;;;;;;;26.73;18.10;;;;;;;8.99;70.60;103033.81;5056090;28;20602;-44
2022/03/22 05:51:17;;;;;;;30.58;18.67;;;;;;;8.93;70.63;103024.59;5041097;28;20396;-47
2022/03/22 05:53:47;;;;;;;28.27;17.85;;;;;;;8.85;70.71;103033.78;5036556;28;20076;-46
2022/03/22 05:56:15;;;;;;;28.70;18.35;;;;;;;8.86;70.49;103034.59;5035872;28;20052;-48
2022/03/22 05:58:43;;;;;;;33.78;18.50;;;;;;;8.80;71.20;103027.25;5035713;28;20041;-51
2022/03/22 06:01:12;;;;;;;26.23;17.50;;;;;;;8.77;70.79;103025.78;5041972;28;20411;-48
2022/03/22 06:03:40;;;;;;;28.60;19.42;;;;;;;8.73;70.79;103032.63;5035371;28;20042;-50
2022/03/22 06:06:08;;;;;;;31.55;19.35;;;;;;;8.73;71.59;103035.34;5035985;28;20120;-44
2022/03/22 06:08:36;;;;;;;28.20;19.02;;;;;;;8.72;71.24;103034.53;5035628;28;20136;-50
2022/03/22 06:11:04;;;;;;;27.35;18.67;;;;;;;8.68;71.55;103030.56;5041274;28;20076;-47
2022/03/22 06:13:31;;;;;;;28.73;19.95;;;;;;;8.69;71.00;103034.94;5053886;28;20453;-47
2022/03/22 06:15:59;;;;;;;29.40;18.63;;;;;;;8.71;71.03;103037.47;5055304;28;20048;-45
2022/03/22 06:18:27;;;;;;;24.60;17.75;;;;;;;8.72;70.80;103045.41;5055467;28;20037;-48
2022/03/22 06:20:55;;;;;;;28.63;19.35;;;;;;;8.72;71.37;103045.41;5053473;28;20050;-49
2022/03/22 06:23:23;;;;;;;28.98;18.55;;;;;;;8.68;71.44;103046.00;5041987;28;20060;-47
2022/03/22 06:25:51;;;;;;;31.70;19.17;;;;;;;8.71;71.17;103042.91;5047240;28;20041;-49
2022/03/22 06:28:19;;;;;;;26.60;20.30;;;;;;;8.75;70.65;103049.59;5035337;28;20048;-49
2022/03/22 06:30:47;;;;;;;29.00;18.90;;;;;;;8.72;70.62;103048.13;5041182;28;20043;-49
2022/03/22 06:33:17;;;;;;;43.80;19.75;;;;;;;8.74;70.56;103045.22;5053757;28;20079;-45
2022/03/22 06:35:47;;;;;;;36.25;21.55;;;;;;;8.73;70.48;103046.22;5053642;28;20045;-51
2022/03/22 06:38:15;;;;;;;31.60;19.90;;;;;;;8.74;70.73;103042.50;5036778;28;20050;-51
2022/03/22 06:40:43;;;;;;;32.53;19.90;;;;;;;8.80;70.21;103046.28;4352336;28;10000053;-49
2022/03/22 06:43:14;;;;;;;30.92;19.50;;;;;;;8.86;70.50;103051.75;5037394;28;20131;-44
2022/03/22 06:45:46;;;;;;;31.92;20.02;;;;;;;8.94;69.89;103054.28;5042650;28;20791;-52
2022/03/22 06:48:17;;;;;;;29.58;19.60;;;;;;;9.02;69.51;103055.16;5014298;28;20045;-53
2022/03/22 06:50:49;;;;;;;27.67;20.60;;;;;;;9.07;68.98;103058.13;5033329;28;20041;-47
2022/03/22 06:53:18;;;;;;;33.47;20.45;;;;;;;9.11;68.48;103062.94;5030147;28;20052;-45
2022/03/22 06:55:46;;;;;;;31.55;19.73;;;;;;;9.15;68.65;103064.22;5048271;28;20037;-48
2022/03/22 06:58:21;;;;;;;31.23;18.90;;;;;;;9.22;68.38;103068.84;5051512;28;20826;-46
2022/03/22 07:00:49;;;;;;;30.73;18.73;;;;;;;9.27;67.61;103069.09;5049752;28;20403;-51
2022/03/22 07:03:17;;;;;;;28.73;19.08;;;;;;;9.31;66.56;103070.34;5050805;28;20546;-47
2022/03/22 07:05:47;;;;;;;31.55;20.10;;;;;;;9.33;66.10;103069.09;5049830;28;20496;-45
2022/03/22 07:08:15;;;;;;;34.03;20.52;;;;;;;9.33;65.96;103074.56;5051186;28;20045;-45
2022/03/22 07:11:47;;;;;;;38.78;20.58;;;;;;;9.37;66.28;103070.34;5029562;28;20153;-44
2022/03/22 07:13:32;;;;;;;34.90;19.90;;;;;;;9.42;65.88;103074.34;5030859;28;20099;-44
2022/03/22 07:16:01;;;;;;;38.25;20.38;;;;;;;9.42;65.38;103064.31;5030747;28;20049;-51
2022/03/22 07:18:29;;;;;;;32.35;20.70;;;;;;;9.46;65.69;103067.47;5030798;28;20072;-50
2022/03/22 07:20:58;;;;;;;33.20;20.90;;;;;;;9.47;65.44;103071.84;5048549;28;20589;-47
2022/03/22 07:23:26;;;;;;;28.70;20.27;;;;;;;9.50;64.95;103076.88;5050989;28;20061;-44
2022/03/22 07:25:54;;;;;;;33.72;20.40;;;;;;;9.54;64.77;103078.16;5050803;28;20556;-43
2022/03/22 07:28:21;;;;;;;36.10;20.60;;;;;;;9.56;64.73;103073.34;5026330;28;20439;-44
2022/03/22 07:30:49;;;;;;;33.50;21.67;;;;;;;9.58;64.46;103084.88;5033751;28;20387;-44
2022/03/22 07:33:17;;;;;;;32.60;19.73;;;;;;;9.59;64.83;103084.66;5048299;28;20592;-44
2022/03/22 07:35:44;;;;;;;30.23;20.10;;;;;;;9.62;64.82;103082.56;5034486;28;20152;-47
2022/03/22 07:38:12;;;;;;;40.47;21.60;;;;;;;9.64;64.59;103092.19;5039200;28;20467;-45
2022/03/22 07:40:40;;;;;;;40.75;22.38;;;;;;;9.65;64.84;103088.44;5029345;28;20412;-47
2022/03/22 07:43:08;;;;;;;37.67;22.63;;;;;;;9.67;64.40;103088.22;5047130;28;20065;-46
2022/03/22 07:45:37;;;;;;;35.72;21.50;;;;;;;9.67;64.63;103091.81;5050607;28;20071;-45
2022/03/22 07:48:05;;;;;;;43.28;21.65;;;;;;;9.70;64.51;103091.38;5049332;28;20087;-46
2022/03/22 07:53:19;;;;;;;;;;;;;;;9.85;65.31;103084.91;5046191;28;20034;-45
2022/03/22 07:55:47;;;;;;;34.42;20.48;;;;;;;9.89;64.95;103080.75;5031677;28;20447;-47
2022/03/22 07:58:15;;;;;;;41.85;22.30;;;;;;;9.90;64.27;103080.53;5038115;28;20053;-44
2022/03/22 08:00:43;;;;;;;37.08;21.75;;;;;;;9.92;63.68;103078.44;5050445;28;20055;-44
2022/03/22 08:03:15;;;;;;;41.00;21.48;;;;;;;9.93;63.54;103085.56;5049695;28;20041;-44
2022/03/22 08:05:46;;;;;;;38.70;21.52;;;;;;;9.94;63.72;103089.13;5050113;28;20053;-47
2022/03/22 08:08:15;;;;;;;41.10;22.38;;;;;;;9.96;63.66;103087.03;5048818;28;20085;-45
2022/03/22 08:11:06;;;;;;;33.30;21.77;;;;;;;9.98;63.42;103082.19;5048913;28;20833;-45
2022/03/22 08:13:36;;;;;;;33.08;21.92;;;;;;;10.01;63.32;103084.53;5050555;28;20151;-47
2022/03/22 08:16:07;;;;;;;30.63;20.13;;;;;;;10.03;63.43;103098.78;5029506;28;20111;-44
2022/03/22 08:18:35;;;;;;;30.23;22.02;;;;;;;10.06;63.45;103095.63;5030465;28;20054;-47
2022/03/22 08:21:03;;;;;;;31.90;22.40;;;;;;;10.10;63.27;103087.88;5030093;28;20045;-48
2022/03/22 08:23:31;;;;;;;30.80;22.60;;;;;;;10.13;63.88;103091.03;5030018;28;20037;-47
2022/03/22 08:25:58;;;;;;;36.15;24.33;;;;;;;10.17;63.86;103092.28;5031316;28;20385;-48
2022/03/22 08:28:26;;;;;;;29.75;21.42;;;;;;;10.22;63.83;103095.22;5033175;28;20051;-47
2022/03/22 08:30:54;;;;;;;32.65;22.00;;;;;;;10.24;63.72;103095.81;5033206;28;20045;-49
2022/03/22 08:33:22;;;;;;;33.53;21.38;;;;;;;10.29;63.92;103091.66;5032568;28;20127;-48
2022/03/22 08:35:52;;;;;;;34.03;21.88;;;;;;;10.32;64.01;103099.41;5032583;28;20124;-42
2022/03/22 08:38:20;;;;;;;35.70;22.90;;;;;;;10.37;63.78;103091.47;5033654;28;20111;-44
2022/03/22 08:40:49;;;;;;;38.17;23.13;;;;;;;10.41;63.24;103095.44;5033702;28;20051;-46
2022/03/22 08:43:19;;;;;;;29.75;21.08;;;;;;;10.46;63.25;103095.63;4985303;28;20423;-49
2022/03/22 08:45:47;;;;;;;27.88;19.40;;;;;;;10.50;63.12;103096.91;5034364;28;20060;-50
2022/03/22 08:48:15;;;;;;;36.33;23.30;;;;;;;10.55;63.00;103086.19;5015836;28;20405;-50
2022/03/22 08:50:45;;;;;;;33.95;20.67;;;;;;;10.63;63.44;103105.06;5033000;28;20077;-50
2022/03/22 08:53:13;;;;;;;40.28;23.75;;;;;;;10.69;63.24;103097.09;5033451;28;20041;-47
2022/03/22 08:55:48;;;;;;;39.67;23.25;;;;;;;10.74;62.60;103098.13;5033125;28;20072;-49
2022/03/22 08:58:17;;;;;;;38.88;25.80;;;;;;;10.83;62.68;103102.28;5036690;28;20120;-51
2022/03/22 09:00:45;;;;;;;34.90;25.50;;;;;;;10.94;62.51;103102.69;5056763;28;20051;-47
2022/03/22 09:03:14;;;;;;;42.67;26.83;;;;;;;11.01;62.07;103093.41;5048400;28;20459;-46
2022/03/22 09:08:30;;;;;;;39.70;24.33;;;;;;;11.05;61.44;103093.84;5036963;28;20486;-46
2022/03/22 09:10:57;;;;;;;32.97;23.48;;;;;;;11.05;61.54;103094.66;5036891;28;20438;-54
2022/03/22 09:13:28;;;;;;;37.08;25.15;;;;;;;11.12;61.14;103093.81;5036819;28;20053;-52
2022/03/22 09:15:56;;;;;;;36.28;22.42;;;;;;;11.16;61.02;103095.03;5036755;28;20049;-51
2022/03/22 09:18:25;;;;;;;33.38;23.60;;;;;;;11.15;61.01;103085.19;5035388;28;20045;-49
2022/03/22 09:20:53;;;;;;;31.92;23.00;;;;;;;11.16;60.75;103089.59;5036564;28;20116;-48
2022/03/22 09:23:21;;;;;;;41.40;25.02;;;;;;;11.20;61.07;103088.94;5045998;28;20040;-47
2022/03/22 09:25:50;;;;;;;43.45;24.60;;;;;;;11.29;61.06;103095.00;5038639;28;20041;-47
2022/03/22 09:28:18;;;;;;;34.35;23.45;;;;;;;11.36;59.68;103087.63;5056457;28;20446;-50
2022/03/22 09:30:48;;;;;;;40.60;23.83;;;;;;;11.43;60.50;103091.16;5056074;28;20488;-50
2022/03/22 09:33:17;;;;;;;37.92;24.58;;;;;;;11.51;59.77;103090.06;5054058;28;20056;-51
2022/03/22 09:35:47;;;;;;;33.45;23.15;;;;;;;11.54;59.66;103080.59;5055987;28;20562;-51
2022/03/22 09:38:17;;;;;;;38.22;24.00;;;;;;;11.54;58.97;103086.88;5056238;28;20063;-53
2022/03/22 09:40:45;;;;;;;31.90;23.20;;;;;;;11.55;59.21;103087.75;5056213;28;20545;-50
2022/03/22 09:43:13;;;;;;;34.30;22.48;;;;;;;11.59;58.44;103086.22;5045025;28;20053;-52
2022/03/22 09:45:43;;;;;;;38.38;24.05;;;;;;;11.62;57.86;103089.38;5054965;28;20554;-50
2022/03/22 09:48:16;;;;;;;37.60;22.70;;;;;;;11.66;57.64;103085.13;5056232;28;20058;-50
2022/03/22 09:53:31;;;;;;;35.60;23.63;;;;;;;11.82;56.66;103078.31;5054418;28;20133;-52
2022/03/22 09:55:59;;;;;;;32.47;23.60;;;;;;;11.89;56.77;103079.13;5055825;28;20106;-49
2022/03/22 09:58:28;;;;;;;33.70;22.90;;;;;;;11.92;56.90;103073.22;5055711;28;20430;-51
2022/03/22 10:00:57;;;;;;;39.50;23.92;;;;;;;11.93;57.55;103079.53;5054347;28;20076;-49
2022/03/22 10:03:25;;;;;;;37.67;23.35;;;;;;;11.92;57.07;103078.69;5041386;28;20095;-48
2022/03/22 10:06:11;;;;;;;35.58;23.20;;;;;;;11.97;56.74;103069.00;5034636;28;20042;-52
2022/03/22 10:08:50;;;;;;;35.85;24.38;;;;;;;12.00;57.72;103068.53;5035529;28;20041;-48
2022/03/22 10:11:18;;;;;;;31.60;23.38;;;;;;;12.05;57.87;103076.91;5033805;28;20068;-51
2022/03/22 10:13:55;;;;;;;29.10;15.98;;;;;;;12.19;61.95;103067.53;5035639;28;20041;-50
2022/03/22 10:16:23;;;;;;;26.98;16.30;;;;;;;12.42;61.36;103060.63;5034616;28;20128;-54
2022/03/22 10:18:51;;;;;;;33.88;22.02;;;;;;;12.46;57.87;103054.47;5034068;28;20496;-50
2022/03/22 10:21:19;;;;;;;34.08;23.17;;;;;;;12.47;55.79;103061.59;5017761;28;20076;-50
2022/03/22 10:23:54;;;;;;;33.60;20.98;;;;;;;12.48;56.23;103059.69;5054122;28;20041;-50
2022/03/22 10:26:33;;;;;;;31.63;20.55;;;;;;;12.47;56.90;103052.56;5051524;28;20029;-49
2022/03/22 10:29:01;;;;;;;32.10;18.70;;;;;;;12.45;58.17;103055.50;5044014;28;20139;-49
2022/03/22 10:31:38;;;;;;;36.75;19.52;;;;;;;12.60;61.23;103055.16;5052810;28;20098;-48
2022/03/22 10:34:07;;;;;;;30.10;20.55;;;;;;;12.54;57.50;103050.59;5035447;28;20405;-46
2022/03/22 10:36:36;;;;;;;32.20;22.80;;;;;;;12.53;55.53;103051.66;5054922;28;20033;-47
2022/03/22 10:39:10;;;;;;;33.58;21.23;;;;;;;12.54;56.36;103042.41;5053925;28;20041;-51
2022/03/22 10:41:45;;;;;;;40.00;23.25;;;;;;;12.62;54.17;103050.28;5049774;28;20127;-51
2022/03/22 10:44:17;;;;;;;42.00;23.98;;;;;;;12.70;53.21;103046.41;5017589;28;20057;-52
2022/03/22 10:46:47;;;;;;;31.48;18.40;;;;;;;12.87;54.38;103042.03;5034957;28;20053;-49
2022/03/22 10:49:18;;;;;;;36.05;24.60;;;;;;;13.06;53.50;103039.25;5034964;28;20049;-51
2022/03/22 10:52:08;;;;;;;36.60;22.73;;;;;;;13.27;52.04;103040.66;5035849;28;20491;-51
2022/03/22 10:54:36;;;;;;;33.40;23.08;;;;;;;13.35;51.70;103040.41;5033330;28;20518;-51
2022/03/22 10:57:06;;;;;;;31.90;19.05;;;;;;;13.33;51.94;103040.63;5033628;28;20042;-51
2022/03/22 10:59:34;;;;;;;33.63;22.88;;;;;;;13.35;51.44;103041.22;5045459;28;20128;-50
2022/03/22 11:02:02;;;;;;;38.78;22.88;;;;;;;13.48;51.03;103039.34;5046142;28;20044;-51
2022/03/22 11:04:32;;;;;;;37.95;22.95;;;;;;;13.53;50.99;103045.78;5034228;28;20155;-54
2022/03/22 11:07:03;;;;;;;40.88;22.52;;;;;;;13.54;51.13;103035.66;5033555;28;20480;-49
2022/03/22 11:09:30;;;;;;;33.85;21.75;;;;;;;13.50;50.81;103032.56;5033719;28;20041;-52
2022/03/22 11:12:01;;;;;;;31.88;21.20;;;;;;;13.52;51.15;103033.19;5034145;28;20136;-50
2022/03/22 11:14:29;;;;;;;34.83;22.65;;;;;;;13.49;51.72;103036.38;5033487;28;20069;-49
2022/03/22 11:16:57;;;;;;;34.17;22.75;;;;;;;13.46;51.50;103034.09;5033263;28;20045;-50
2022/03/22 11:19:25;;;;;;;31.55;19.80;;;;;;;13.45;52.29;103026.97;5033235;28;20488;-50
2022/03/22 11:21:53;;;;;;;33.85;20.08;;;;;;;13.44;51.23;103025.28;5039733;28;20504;-51
2022/03/22 11:24:25;;;;;;;31.70;20.27;;;;;;;13.50;50.98;103029.00;5047323;28;20384;-49
2022/03/22 11:26:56;;;;;;;30.50;21.17;;;;;;;13.66;50.65;103024.75;5053279;28;20148;-54
2022/03/22 11:29:27;;;;;;;35.42;22.70;;;;;;;13.83;49.54;103018.38;5036647;28;20496;-54
2022/03/22 11:34:42;;;;;;;39.60;23.10;;;;;;;14.00;48.81;103024.00;5043229;28;20036;-54
2022/03/22 11:37:10;;;;;;;39.33;22.20;;;;;;;14.15;47.96;103018.03;5040802;28;20041;-53
2022/03/22 11:42:25;;;;;;;38.08;23.77;;;;;;;14.24;48.21;103011.13;5041281;28;20065;-53
2022/03/22 11:45:00;;;;;;;39.17;23.42;;;;;;;14.39;47.67;103010.63;5045041;28;20094;-53
2022/03/22 11:47:41;;;;;;;36.47;21.27;;;;;;;14.49;46.43;103010.84;5041514;28;20033;-49
2022/03/22 11:50:17;;;;;;;35.75;21.92;;;;;;;14.56;46.40;103004.44;5033823;28;20051;-54